createdAt,value
2019-02-06T01:26:59.987Z,102304.95
2019-02-06T01:29:29.773Z,102305.13
2019-02-06T01:31:59.289Z,102304.52
2019-02-06T01:34:28.783Z,102301.45
2019-02-06T01:36:58.277Z,102301.31
2019-02-06T01:39:27.777Z,102304.67
2019-02-06T01:41:58.883Z,102297.38
2019-02-06T01:44:30.427Z,102304.20
2019-02-06T01:47:00.503Z,102306.30
2019-02-06T01:49:29.955Z,102303.64
2019-02-06T01:51:59.445Z,102292.34
2019-02-06T01:54:28.932Z,102293.34
2019-02-06T01:56:58.373Z,102290.10
2019-02-06T01:59:28.179Z,102288.55
2019-02-06T02:02:02.185Z,102285.75
2019-02-06T02:04:31.749Z,102279.97
2019-02-06T02:07:01.332Z,102273.74
2019-02-06T02:09:30.886Z,102276.20
2019-02-06T02:12:00.670Z,102271.41
2019-02-06T02:14:31.906Z,102267.87
2019-02-06T02:17:01.490Z,102268.16
2019-02-06T02:19:31.051Z,102262.89
2019-02-06T02:22:00.487Z,102260.05
2019-02-06T02:24:29.926Z,102257.34
2019-02-06T02:26:59.422Z,102258.08
2019-02-06T02:29:28.863Z,102257.95
2019-02-06T02:31:58.430Z,102255.38
2019-02-06T02:34:28.396Z,102256.66
2019-02-06T02:37:00.716Z,102255.27
2019-02-06T02:39:30.226Z,102250.08
2019-02-06T02:42:00.024Z,102250.08
2019-02-06T02:44:29.460Z,102247.94
2019-02-06T02:46:58.900Z,102244.88
2019-02-06T02:49:29.396Z,102240.66
2019-02-06T02:51:58.921Z,102240.70
2019-02-06T02:54:28.388Z,102235.58
2019-02-06T02:56:58.270Z,102237.67
2019-02-06T02:59:27.704Z,102235.50
2019-02-06T03:01:58.767Z,102234.30
2019-02-06T03:04:28.784Z,102225.65
2019-02-06T03:06:58.346Z,102221.90
2019-02-06T03:09:27.852Z,102223.67
2019-02-06T03:11:57.628Z,102218.48
2019-02-06T03:14:27.119Z,102216.19
2019-02-06T03:16:56.560Z,102219.09
2019-02-06T03:19:25.976Z,102216.52
2019-02-06T03:21:55.402Z,102218.53
2019-02-06T03:24:24.904Z,102218.08
2019-02-06T03:26:54.701Z,102214.67
2019-02-06T03:29:24.098Z,102209.84
2019-02-06T03:31:53.590Z,102211.52
2019-02-06T03:34:23.098Z,102210.28
2019-02-06T03:36:52.582Z,102205.98
2019-02-06T03:39:22.030Z,102204.80
2019-02-06T03:41:51.788Z,102206.91
2019-02-06T03:44:21.227Z,102198.25
2019-02-06T03:46:50.731Z,102195.68
2019-02-06T03:49:20.148Z,102196.12
2019-02-06T03:51:49.592Z,102195.60
2019-02-06T03:54:19.079Z,102195.64
2019-02-06T03:56:48.963Z,102193.78
2019-02-06T03:59:18.393Z,102194.67
2019-02-06T04:01:47.951Z,102179.34
2019-02-06T04:04:17.557Z,102167.80
2019-02-06T04:06:55.035Z,102172.43
2019-02-06T04:09:18.087Z,102161.36
2019-02-06T04:11:47.956Z,102152.80
2019-02-06T04:14:17.458Z,102154.88
2019-02-06T04:16:46.892Z,102163.45
2019-02-06T04:19:16.323Z,102162.13
2019-02-06T04:21:45.743Z,102152.67
2019-02-06T04:24:15.169Z,102144.48
2019-02-06T04:26:44.752Z,102142.14
2019-02-06T04:29:14.186Z,102128.17
2019-02-06T04:31:43.623Z,102123.36
2019-02-06T04:34:13.037Z,102117.33
2019-02-06T04:36:42.528Z,102119.94
2019-02-06T04:39:11.970Z,102114.34
2019-02-06T04:41:41.772Z,102109.02
2019-02-06T04:44:11.213Z,102105.23
2019-02-06T04:46:40.638Z,102097.09
2019-02-06T04:49:10.082Z,102099.15
2019-02-06T04:51:39.521Z,102091.83
2019-02-06T04:54:08.949Z,102095.33
2019-02-06T04:56:38.821Z,102095.70
2019-02-06T04:59:08.342Z,102095.14
2019-02-06T05:01:37.774Z,102097.39
2019-02-06T05:04:07.194Z,102091.56
2019-02-06T05:06:36.698Z,102094.98
2019-02-06T05:09:07.765Z,102077.37
2019-02-06T05:11:37.477Z,102075.69
2019-02-06T05:14:06.962Z,102069.21
2019-02-06T05:16:36.387Z,102059.36
2019-02-06T05:19:07.030Z,102050.94
2019-02-06T05:21:36.443Z,102050.84
2019-02-06T05:24:05.957Z,102051.72
2019-02-06T05:26:35.827Z,102047.56
2019-02-06T05:29:05.345Z,102044.22
2019-02-06T05:31:34.770Z,102043.66
2019-02-06T05:34:04.266Z,102039.80
2019-02-06T05:36:33.778Z,102041.56
2019-02-06T05:39:04.652Z,102034.33
2019-02-06T05:41:34.621Z,102043.88
2019-02-06T05:44:04.759Z,102049.80
2019-02-06T05:46:34.360Z,102054.59
2019-02-06T05:49:03.833Z,102050.61
2019-02-06T05:51:33.251Z,102046.64
2019-02-06T05:54:02.684Z,102042.78
2019-02-06T05:56:32.094Z,102046.23
2019-02-06T05:59:01.531Z,102045.24
2019-02-06T06:01:30.952Z,102040.65
2019-02-06T06:04:00.427Z,102041.17
2019-02-06T06:06:29.890Z,102042.97
2019-02-06T06:08:59.406Z,102036.50
2019-02-06T06:11:28.899Z,102009.54
2019-02-06T06:13:58.371Z,102007.52
2019-02-06T06:16:27.839Z,102023.03
2019-02-06T06:18:57.329Z,102025.68
2019-02-06T06:21:26.817Z,102023.28
2019-02-06T06:23:56.250Z,102019.94
2019-02-06T06:26:25.743Z,102021.70
2019-02-06T06:28:55.670Z,102014.95
2019-02-06T06:31:25.160Z,102014.28
2019-02-06T06:33:54.647Z,102017.67
2019-02-06T06:36:24.089Z,102009.64
2019-02-06T06:38:53.520Z,102009.77
2019-02-06T06:41:23.026Z,102000.08
2019-02-06T06:43:52.817Z,102001.03
2019-02-06T06:46:22.333Z,102005.33
2019-02-06T06:48:51.763Z,102002.34
2019-02-06T06:51:21.219Z,102006.25
2019-02-06T06:53:50.628Z,102003.02
2019-02-06T06:56:20.086Z,102007.39
2019-02-06T06:58:49.505Z,101992.37
2019-02-06T07:01:19.012Z,102007.45
2019-02-06T07:03:48.462Z,102011.73
2019-02-06T07:06:18.021Z,102002.36
2019-02-06T07:08:47.531Z,102002.91
2019-02-06T07:11:16.984Z,101996.64
2019-02-06T07:13:46.402Z,102000.04
2019-02-06T07:16:15.887Z,101997.05
2019-02-06T07:18:45.330Z,101990.98
2019-02-06T07:21:14.827Z,101988.84
2019-02-06T07:23:44.263Z,101987.19
2019-02-06T07:26:13.694Z,101990.64
2019-02-06T07:28:43.133Z,101993.31
2019-02-06T07:31:12.557Z,101989.00
2019-02-06T07:33:42.057Z,101984.26
2019-02-06T07:36:11.549Z,101989.38
2019-02-06T07:38:40.987Z,101982.19
2019-02-06T07:41:10.405Z,101980.48
2019-02-06T07:43:39.837Z,101978.75
2019-02-06T07:46:09.252Z,101978.75
2019-02-06T07:48:38.694Z,101978.60
2019-02-06T07:51:08.257Z,101982.09
2019-02-06T07:53:37.699Z,101976.88
2019-02-06T07:56:07.344Z,101976.97
2019-02-06T07:58:36.780Z,101979.66
2019-02-06T08:01:06.344Z,101984.19
2019-02-06T08:03:35.797Z,101981.34
2019-02-06T08:06:05.354Z,101976.01
2019-02-06T08:08:36.385Z,101968.50
2019-02-06T08:11:06.963Z,101974.27
2019-02-06T08:13:36.533Z,101968.80
2019-02-06T08:16:07.482Z,101966.38
2019-02-06T08:18:37.249Z,101967.39
2019-02-06T08:21:06.677Z,101959.28
2019-02-06T08:23:36.348Z,101956.83
2019-02-06T08:26:05.839Z,101960.42
2019-02-06T08:28:35.415Z,101959.20
2019-02-06T08:31:04.980Z,101955.89
2019-02-06T08:33:34.416Z,101956.84
2019-02-06T08:36:04.120Z,101947.50
2019-02-06T08:38:33.640Z,101942.30
2019-02-06T08:41:03.152Z,101937.52
2019-02-06T08:43:32.916Z,101930.69
2019-02-06T08:46:02.438Z,101933.64
2019-02-06T08:48:31.866Z,101934.66
2019-02-06T08:51:01.297Z,101929.91
2019-02-06T08:53:30.719Z,101915.84
2019-02-06T08:56:00.230Z,101919.80
2019-02-06T08:58:29.664Z,101926.63
2019-02-06T09:01:00.315Z,101930.48
2019-02-06T09:03:29.742Z,101922.47
2019-02-06T09:05:59.328Z,101915.32
2019-02-06T09:08:28.746Z,101917.55
2019-02-06T09:10:58.261Z,101914.54
2019-02-06T09:13:27.747Z,101917.28
2019-02-06T09:15:57.265Z,101919.50
2019-02-06T09:18:26.688Z,101921.70
2019-02-06T09:20:56.124Z,101926.08
2019-02-06T09:23:25.613Z,101911.45
2019-02-06T09:25:57.423Z,101915.80
2019-02-06T09:28:26.301Z,101923.64
2019-02-06T09:30:55.745Z,101922.78
2019-02-06T09:33:25.238Z,101924.09
2019-02-06T09:35:54.821Z,101912.97
2019-02-06T09:38:24.239Z,101912.97
2019-02-06T09:40:53.748Z,101911.31
2019-02-06T09:43:23.170Z,101907.46
2019-02-06T09:45:52.601Z,101908.31
2019-02-06T09:48:22.023Z,101898.86
2019-02-06T09:50:51.459Z,101895.47
2019-02-06T09:53:20.951Z,101896.81
2019-02-06T09:55:53.190Z,101894.66
2019-02-06T09:58:21.584Z,101886.08
2019-02-06T10:00:52.043Z,101895.55
2019-02-06T10:03:21.551Z,101896.84
2019-02-06T10:05:50.975Z,101898.14
2019-02-06T10:08:20.422Z,101896.91
2019-02-06T10:10:49.984Z,101905.16
2019-02-06T10:13:19.418Z,101893.12
2019-02-06T10:15:48.908Z,101890.13
2019-02-06T10:18:18.356Z,101890.27
2019-02-06T10:20:49.492Z,101893.78
2019-02-06T10:23:19.073Z,101893.44
2019-02-06T10:25:48.627Z,101893.97
2019-02-06T10:28:18.212Z,101889.27
2019-02-06T10:30:49.075Z,101893.58
2019-02-06T10:33:19.288Z,101890.59
2019-02-06T10:35:52.075Z,101885.41
2019-02-06T10:38:20.212Z,101883.75
2019-02-06T10:40:49.623Z,101881.63
2019-02-06T10:43:31.218Z,101880.77
2019-02-06T10:45:50.762Z,101880.72
2019-02-06T10:48:20.344Z,101878.03
2019-02-06T10:50:50.003Z,101874.53
2019-02-06T10:53:19.580Z,101869.83
2019-02-06T10:55:49.062Z,101866.34
2019-02-06T10:58:19.064Z,101867.66
2019-02-06T11:00:51.320Z,101868.16
2019-02-06T11:03:20.841Z,101863.41
2019-02-06T11:05:50.615Z,101862.13
2019-02-06T11:08:20.261Z,101861.80
2019-02-06T11:10:49.779Z,101860.56
2019-02-06T11:13:19.667Z,101865.41
2019-02-06T11:15:49.221Z,101866.74
2019-02-06T11:18:18.638Z,101854.27
2019-02-06T11:20:48.215Z,101848.72
2019-02-06T11:23:17.722Z,101855.66
2019-02-06T11:25:47.237Z,101849.19
2019-02-06T11:28:17.113Z,101847.49
2019-02-06T11:30:46.681Z,101845.02
2019-02-06T11:33:16.249Z,101838.84
2019-02-06T11:35:45.831Z,101835.94
2019-02-06T11:38:15.409Z,101835.12
2019-02-06T11:40:44.985Z,101827.36
2019-02-06T11:43:14.617Z,101823.08
2019-02-06T11:45:44.197Z,101809.77
2019-02-06T11:48:13.763Z,101800.33
2019-02-06T11:50:44.139Z,101807.70
2019-02-06T11:53:15.998Z,101804.74
2019-02-06T11:55:46.399Z,101806.53
2019-02-06T11:58:15.829Z,101800.92
2019-02-06T12:00:48.627Z,101794.02
2019-02-06T12:03:18.405Z,101783.20
2019-02-06T12:05:48.111Z,101783.23
2019-02-06T12:08:17.595Z,101780.65
2019-02-06T12:10:48.009Z,101775.44
2019-02-06T12:13:17.559Z,101778.91
2019-02-06T12:15:47.074Z,101779.78
2019-02-06T12:18:16.574Z,101775.45
2019-02-06T12:20:47.243Z,101775.03
2019-02-06T12:23:16.757Z,101772.43
2019-02-06T12:25:46.728Z,101776.31
2019-02-06T12:28:16.175Z,101764.22
2019-02-06T12:30:45.660Z,101768.55
2019-02-06T12:33:15.246Z,101765.95
2019-02-06T12:35:44.806Z,101759.44
2019-02-06T12:38:14.458Z,101758.57
2019-02-06T12:40:43.880Z,101753.35
2019-02-06T12:43:13.623Z,101752.93
2019-02-06T12:45:43.187Z,101745.55
2019-02-06T12:48:12.781Z,101742.11
2019-02-06T12:50:42.342Z,101747.75
2019-02-06T12:53:11.832Z,101754.25
2019-02-06T12:55:42.094Z,101749.02
2019-02-06T12:58:11.666Z,101749.48
2019-02-06T13:00:44.854Z,101739.92
2019-02-06T13:03:14.460Z,101736.50
2019-02-06T13:05:44.026Z,101739.52
2019-02-06T13:08:13.601Z,101731.30
2019-02-06T13:10:43.036Z,101729.56
2019-02-06T13:13:12.528Z,101726.98
2019-02-06T13:15:42.044Z,101725.23
2019-02-06T13:18:11.464Z,101715.30
2019-02-06T13:20:41.046Z,101717.03
2019-02-06T13:23:10.527Z,101717.45
2019-02-06T13:25:39.975Z,101715.73
2019-02-06T13:28:09.533Z,101707.06
2019-02-06T13:30:39.123Z,101713.13
2019-02-06T13:33:11.571Z,101710.55
2019-02-06T13:35:40.381Z,101703.63
2019-02-06T13:38:09.943Z,101693.22
2019-02-06T13:40:45.667Z,101688.89
2019-02-06T13:43:10.578Z,101686.30
2019-02-06T13:45:42.904Z,101691.50
2019-02-06T13:48:12.530Z,101689.33
2019-02-06T13:50:42.312Z,101684.13
2019-02-06T13:53:11.869Z,101687.59
2019-02-06T13:55:41.459Z,101683.27
2019-02-06T13:58:19.845Z,101684.55
2019-02-06T14:00:42.809Z,101674.59
2019-02-06T14:03:12.307Z,101671.58
2019-02-06T14:05:42.645Z,101667.25
2019-02-06T14:08:14.516Z,101669.41
2019-02-06T14:10:57.126Z,101665.09
2019-02-06T14:13:15.918Z,101654.25
2019-02-06T14:15:47.936Z,101658.17
2019-02-06T14:18:17.685Z,101658.17
2019-02-06T14:20:49.025Z,101654.72
2019-02-06T14:23:21.657Z,101653.84
2019-02-06T14:25:54.203Z,101653.83
2019-02-06T14:28:47.412Z,101646.49
2019-02-06T14:31:34.805Z,101642.58
2019-02-06T14:34:40.721Z,101641.72
2019-02-06T14:37:27.627Z,101643.87
2019-02-06T14:39:59.779Z,101638.25
2019-02-06T14:42:38.263Z,101630.41
2019-02-06T14:45:39.304Z,101635.17
2019-02-06T14:48:20.869Z,101626.06
2019-02-06T14:51:02.396Z,101632.56
2019-02-06T14:53:37.420Z,101633.01
2019-02-06T14:56:19.178Z,101633.45
2019-02-06T14:59:10.585Z,101623.91
2019-02-06T15:01:49.072Z,101627.38
2019-02-06T15:04:37.996Z,101632.55
2019-02-06T15:07:22.299Z,101618.73
2019-02-06T15:10:09.832Z,101623.05
2019-02-06T15:13:00.590Z,101622.17
2019-02-06T15:16:00.004Z,101614.84
2019-02-06T15:18:35.221Z,101615.27
2019-02-06T15:21:13.636Z,101614.84
2019-02-06T15:24:01.179Z,101609.65
2019-02-06T15:26:50.439Z,101607.48
2019-02-06T15:29:32.126Z,101606.19
2019-02-06T15:32:27.325Z,101595.80
2019-02-06T15:35:17.846Z,101593.20
2019-02-06T15:38:02.205Z,101590.17
2019-02-06T15:40:37.701Z,101589.33
2019-02-06T15:43:10.185Z,101581.95
2019-02-06T15:46:04.797Z,101585.87
2019-02-06T15:48:55.183Z,101577.64
2019-02-06T15:51:37.050Z,101574.19
2019-02-06T15:54:17.870Z,101571.59
2019-02-06T15:56:56.294Z,101571.16
2019-02-06T15:59:51.455Z,101566.40
2019-02-06T16:02:33.003Z,101575.48
2019-02-06T16:05:29.886Z,101568.55
2019-02-06T16:08:05.255Z,101570.73
2019-02-06T16:10:49.631Z,101578.10
2019-02-06T16:13:28.105Z,101578.08
2019-02-06T16:16:35.847Z,101582.42
2019-02-06T16:19:24.629Z,101577.23
2019-02-06T16:21:59.904Z,101575.93
2019-02-06T16:24:55.929Z,101579.40
2019-02-06T16:27:40.305Z,101580.69
2019-02-06T16:30:28.029Z,101580.28
2019-02-06T16:33:09.980Z,101588.92
2019-02-06T16:36:06.705Z,101577.70
2019-02-06T16:38:54.100Z,101578.98
2019-02-06T16:41:53.438Z,101573.38
2019-02-06T16:44:38.414Z,101573.38
2019-02-06T16:47:18.859Z,101575.54
2019-02-06T16:49:59.627Z,101572.94
2019-02-06T16:52:50.502Z,101573.82
2019-02-06T16:55:46.634Z,101563.88
2019-02-06T16:58:27.928Z,101562.98
2019-02-06T17:01:15.613Z,101565.14
2019-02-06T17:03:57.166Z,101565.16
2019-02-06T17:06:32.707Z,101562.55
2019-02-06T17:09:39.892Z,101561.69
2019-02-06T17:12:24.277Z,101556.08
2019-02-06T17:15:19.466Z,101551.77
2019-02-06T17:18:10.008Z,101550.48
2019-02-06T17:20:45.429Z,101541.38
2019-02-06T17:23:20.921Z,101537.50
2019-02-06T17:26:16.214Z,101537.92
2019-02-06T17:28:54.676Z,101540.09
2019-02-06T17:31:45.497Z,101544.42
2019-02-06T17:34:20.734Z,101544.41
2019-02-06T17:37:05.183Z,101554.81
2019-02-06T17:40:01.762Z,101547.46
2019-02-06T17:42:44.366Z,101548.73
2019-02-06T17:45:31.508Z,101557.41
2019-02-06T17:48:16.014Z,101543.98
2019-02-06T17:50:48.502Z,101531.89
2019-02-06T17:53:26.288Z,101524.13
2019-02-06T17:55:55.868Z,101531.45
2019-02-06T17:58:25.830Z,101524.13
2019-02-06T18:01:00.564Z,101521.94
2019-02-06T18:03:33.471Z,101513.28
2019-02-06T18:06:02.994Z,101517.20
2019-02-06T18:08:32.475Z,101510.72
2019-02-06T18:11:01.991Z,101506.38
2019-02-06T18:13:31.711Z,101511.55
2019-02-06T18:16:01.218Z,101517.64
2019-02-06T18:18:30.794Z,101520.66
2019-02-06T18:21:00.628Z,101514.18
2019-02-06T18:23:30.197Z,101515.47
2019-02-06T18:25:59.784Z,101518.07
2019-02-06T18:28:29.276Z,101515.06
2019-02-06T18:30:58.802Z,101519.39
2019-02-06T18:33:29.760Z,101513.34
2019-02-06T18:35:59.232Z,101517.22
2019-02-06T18:38:28.730Z,101514.18
2019-02-06T18:40:58.174Z,101505.55
2019-02-06T18:43:27.746Z,101503.82
2019-02-06T18:45:57.171Z,101502.08
2019-02-06T18:48:29.422Z,101501.23
2019-02-06T18:50:59.302Z,101505.13
2019-02-06T18:53:28.889Z,101503.38
2019-02-06T18:55:58.516Z,101511.17
2019-02-06T18:58:28.033Z,101509.86
2019-02-06T19:00:57.618Z,101511.16
2019-02-06T19:03:33.022Z,101511.59
2019-02-06T19:06:02.604Z,101502.94
2019-02-06T19:08:32.471Z,101506.40
2019-02-06T19:11:02.074Z,101509.88
2019-02-06T19:13:31.767Z,101500.81
2019-02-06T19:16:02.994Z,101499.06
2019-02-06T19:18:32.457Z,101494.30
2019-02-06T19:21:02.035Z,101486.53
2019-02-06T19:23:31.634Z,101498.20
2019-02-06T19:26:01.229Z,101482.23
2019-02-06T19:28:31.697Z,101480.48
2019-02-06T19:31:01.231Z,101478.33
2019-02-06T19:33:30.828Z,101475.31
2019-02-06T19:36:00.259Z,101467.09
2019-02-06T19:38:29.783Z,101465.79
2019-02-06T19:40:59.795Z,101464.08
2019-02-06T19:43:29.249Z,101465.34
2019-02-06T19:45:58.879Z,101464.08
2019-02-06T19:48:28.478Z,101465.79
2019-02-06T19:50:57.985Z,101471.86
2019-02-06T19:53:27.513Z,101461.48
2019-02-06T19:55:57.079Z,101449.80
2019-02-06T19:58:26.910Z,101457.58
2019-02-06T20:00:59.092Z,101468.81
2019-02-06T20:03:28.696Z,101470.13
2019-02-06T20:05:58.252Z,101470.13
2019-02-06T20:08:27.859Z,101460.62
2019-02-06T20:10:57.605Z,101459.75
2019-02-06T20:13:27.138Z,101452.84
2019-02-06T20:15:56.942Z,101451.09
2019-02-06T20:18:26.358Z,101448.52
2019-02-06T20:20:55.938Z,101442.46
2019-02-06T20:23:25.511Z,101443.76
2019-02-06T20:25:54.954Z,101434.68
2019-02-06T20:28:24.462Z,101431.68
2019-02-06T20:30:54.115Z,101427.34
2019-02-06T20:33:23.676Z,101419.98
2019-02-06T20:35:53.114Z,101412.23
2019-02-06T20:38:22.533Z,101417.84
2019-02-06T20:40:51.989Z,101421.71
2019-02-06T20:43:22.372Z,101421.72
2019-02-06T20:45:53.782Z,101416.11
2019-02-06T20:48:23.483Z,101407.91
2019-02-06T20:50:52.996Z,101403.57
2019-02-06T20:53:22.429Z,101415.69
2019-02-06T20:55:51.934Z,101411.34
2019-02-06T20:58:21.418Z,101410.91
2019-02-06T21:00:50.930Z,101412.22
2019-02-06T21:03:23.442Z,101405.75
2019-02-06T21:05:52.890Z,101398.83
2019-02-06T21:08:22.463Z,101398.81
2019-02-06T21:10:51.979Z,101398.81
2019-02-06T21:13:32.536Z,101399.28
2019-02-06T21:15:52.549Z,101400.58
2019-02-06T21:18:22.246Z,101398.81
2019-02-06T21:20:52.043Z,101394.09
2019-02-06T21:23:21.549Z,101392.80
2019-02-06T21:25:51.071Z,101388.05
2019-02-06T21:28:20.492Z,101382.86
2019-02-06T21:30:49.911Z,101380.27
2019-02-06T21:33:19.462Z,101378.09
2019-02-06T21:35:48.924Z,101368.17
2019-02-06T21:38:21.109Z,101382.83
2019-02-06T21:40:52.073Z,101374.21
2019-02-06T21:43:21.513Z,101368.58
2019-02-06T21:45:51.012Z,101367.28
2019-02-06T21:48:22.375Z,101379.83
2019-02-06T21:50:51.940Z,101369.86
2019-02-06T21:53:21.466Z,101363.84
2019-02-06T21:55:50.965Z,101359.50
2019-02-06T21:58:23.446Z,101365.56
2019-02-06T22:00:52.952Z,101353.01
2019-02-06T22:03:22.372Z,101355.17
2019-02-06T22:05:51.956Z,101351.28
2019-02-06T22:08:21.457Z,101342.20
2019-02-06T22:10:52.548Z,101336.59
2019-02-06T22:13:21.990Z,101330.11
2019-02-06T22:15:54.185Z,101336.17
2019-02-06T22:18:23.709Z,101327.95
2019-02-06T22:20:53.294Z,101338.75
2019-02-06T22:23:22.733Z,101337.05
2019-02-06T22:25:52.183Z,101341.78
2019-02-06T22:28:21.753Z,101334.03
2019-02-06T22:30:51.436Z,101337.05
2019-02-06T22:33:25.732Z,101334.48
2019-02-06T22:35:55.174Z,101338.78
2019-02-06T22:38:24.648Z,101336.62
2019-02-06T22:40:54.096Z,101339.23
2019-02-06T22:43:23.698Z,101331.45
2019-02-06T22:45:53.135Z,101334.92
2019-02-06T22:48:22.626Z,101345.72
2019-02-06T22:50:52.401Z,101343.56
2019-02-06T22:53:21.902Z,101335.80
2019-02-06T22:55:51.352Z,101338.80
2019-02-06T22:58:21.259Z,101333.19
2019-02-06T23:01:02.772Z,101331.45
2019-02-06T23:03:35.098Z,101328.42
2019-02-06T23:06:05.671Z,101317.19
2019-02-06T23:08:35.298Z,101305.55
2019-02-06T23:11:44.454Z,101302.52
2019-02-06T23:14:18.287Z,101304.23
2019-02-06T23:16:49.309Z,101301.23
2019-02-06T23:19:21.518Z,101303.39
2019-02-06T23:21:50.959Z,101293.91
2019-02-06T23:24:20.714Z,101288.71
2019-02-06T23:26:53.065Z,101284.41
2019-02-06T23:29:22.758Z,101281.80
2019-02-06T23:31:52.200Z,101282.67
2019-02-06T23:34:24.671Z,101274.48
2019-02-06T23:36:54.186Z,101272.73
2019-02-06T23:39:23.673Z,101266.28
2019-02-06T23:41:53.181Z,101264.13
2019-02-06T23:44:28.922Z,101251.17
2019-02-06T23:46:57.205Z,101243.86
2019-02-06T23:49:28.239Z,101244.70
2019-02-06T23:51:59.273Z,101241.26
2019-02-06T23:54:29.182Z,101238.23
2019-02-06T23:56:59.586Z,101237.37
2019-02-06T23:59:29.150Z,101235.22
